Terminal Aerodrome Forecast
Issued by NWS

Home | Current Version | Previous Version | Text Only | Print | Product List | Glossary On
Versions: 1 2 3 4 5 6 7 8 9 10 11 12 13
000
FTUS42 TJSJ 032300
TAFNCM
TAF
TNCM 032333Z 0400/0424 07012KT P6SM VCSH FEW018 SCT040
     FM040500 07014KT P6SM SCT020=

USA.gov is the U.S. government's official web portal to all federal, state and local government web resources and services.